sensor_id;sensor_type;location;lat;lon;timestamp;temperature;humidity
1578;DHT22;57623;53.608;10.004;2023-11-19T00:00:22;5.70;99.90
1578;DHT22;57623;53.608;10.004;2023-11-19T00:02:50;5.70;99.90
1578;DHT22;57623;53.608;10.004;2023-11-19T00:05:20;5.70;99.90
1578;DHT22;57623;53.608;10.004;2023-11-19T00:07:47;5.70;99.90
1578;DHT22;57623;53.608;10.004;2023-11-19T00:10:17;5.70;99.90
1578;DHT22;57623;53.608;10.004;2023-11-19T00:12:48;5.70;99.90
1578;DHT22;57623;53.608;10.004;2023-11-19T00:15:17;5.70;99.90
1578;DHT22;57623;53.608;10.004;2023-11-19T00:17:47;5.80;99.90
1578;DHT22;57623;53.608;10.004;2023-11-19T00:20:17;5.80;99.90
1578;DHT22;57623;53.608;10.004;2023-11-19T00:22:47;5.80;99.90
1578;DHT22;57623;53.608;10.004;2023-11-19T00:25:18;5.80;99.90
1578;DHT22;57623;53.608;10.004;2023-11-19T00:27:46;5.80;99.90
1578;DHT22;57623;53.608;10.004;2023-11-19T00:30:14;5.80;99.90
1578;DHT22;57623;53.608;10.004;2023-11-19T00:32:43;5.80;99.90
1578;DHT22;57623;53.608;10.004;2023-11-19T00:35:12;5.80;99.90
1578;DHT22;57623;53.608;10.004;2023-11-19T00:37:41;5.80;99.90
1578;DHT22;57623;53.608;10.004;2023-11-19T00:40:14;5.80;99.90
1578;DHT22;57623;53.608;10.004;2023-11-19T00:42:43;5.80;99.90
1578;DHT22;57623;53.608;10.004;2023-11-19T00:45:11;5.80;99.90
1578;DHT22;57623;53.608;10.004;2023-11-19T00:47:40;5.80;99.90
1578;DHT22;57623;53.608;10.004;2023-11-19T00:50:09;5.80;99.90
1578;DHT22;57623;53.608;10.004;2023-11-19T00:52:38;5.80;99.90
1578;DHT22;57623;53.608;10.004;2023-11-19T00:55:07;5.80;99.90
1578;DHT22;57623;53.608;10.004;2023-11-19T00:57:36;5.80;99.90
1578;DHT22;57623;53.608;10.004;2023-11-19T01:00:05;5.80;99.90
1578;DHT22;57623;53.608;10.004;2023-11-19T01:02:46;5.80;99.90
1578;DHT22;57623;53.608;10.004;2023-11-19T01:05:16;5.80;99.90
1578;DHT22;57623;53.608;10.004;2023-11-19T01:07:48;5.80;99.90
1578;DHT22;57623;53.608;10.004;2023-11-19T01:10:16;5.80;99.90
1578;DHT22;57623;53.608;10.004;2023-11-19T01:12:46;5.80;99.90
1578;DHT22;57623;53.608;10.004;2023-11-19T01:15:15;5.80;99.90
1578;DHT22;57623;53.608;10.004;2023-11-19T01:17:45;5.80;99.90
1578;DHT22;57623;53.608;10.004;2023-11-19T01:20:16;5.80;99.90
1578;DHT22;57623;53.608;10.004;2023-11-19T01:22:44;5.90;99.90
1578;DHT22;57623;53.608;10.004;2023-11-19T01:25:12;5.90;99.90
1578;DHT22;57623;53.608;10.004;2023-11-19T01:27:40;5.90;99.90
1578;DHT22;57623;53.608;10.004;2023-11-19T01:30:11;5.90;99.90
1578;DHT22;57623;53.608;10.004;2023-11-19T01:32:40;5.90;99.90
1578;DHT22;57623;53.608;10.004;2023-11-19T01:35:08;5.90;99.90
1578;DHT22;57623;53.608;10.004;2023-11-19T01:37:36;5.90;99.90
1578;DHT22;57623;53.608;10.004;2023-11-19T01:40:05;5.90;99.90
1578;DHT22;57623;53.608;10.004;2023-11-19T01:42:36;5.90;99.90
1578;DHT22;57623;53.608;10.004;2023-11-19T01:45:05;5.90;99.90
1578;DHT22;57623;53.608;10.004;2023-11-19T01:47:37;5.90;99.90
1578;DHT22;57623;53.608;10.004;2023-11-19T01:50:07;5.90;99.90
1578;DHT22;57623;53.608;10.004;2023-11-19T01:52:36;5.90;99.90
1578;DHT22;57623;53.608;10.004;2023-11-19T01:55:06;5.90;99.90
1578;DHT22;57623;53.608;10.004;2023-11-19T01:57:35;6.00;99.90
1578;DHT22;57623;53.608;10.004;2023-11-19T02:00:08;5.90;99.90
1578;DHT22;57623;53.608;10.004;2023-11-19T02:02:39;5.90;99.90
1578;DHT22;57623;53.608;10.004;2023-11-19T02:05:08;5.90;99.90
1578;DHT22;57623;53.608;10.004;2023-11-19T02:07:36;6.00;99.90
1578;DHT22;57623;53.608;10.004;2023-11-19T02:10:05;6.00;99.90
1578;DHT22;57623;53.608;10.004;2023-11-19T02:12:40;6.00;99.90
1578;DHT22;57623;53.608;10.004;2023-11-19T02:15:09;6.00;99.90
1578;DHT22;57623;53.608;10.004;2023-11-19T02:17:39;6.00;99.90
1578;DHT22;57623;53.608;10.004;2023-11-19T02:20:08;6.00;99.90
1578;DHT22;57623;53.608;10.004;2023-11-19T02:22:39;6.00;99.90
1578;DHT22;57623;53.608;10.004;2023-11-19T02:25:08;6.00;99.90
1578;DHT22;57623;53.608;10.004;2023-11-19T02:27:49;6.00;99.90
1578;DHT22;57623;53.608;10.004;2023-11-19T02:30:19;6.00;99.90
1578;DHT22;57623;53.608;10.004;2023-11-19T02:32:47;5.90;99.90
1578;DHT22;57623;53.608;10.004;2023-11-19T02:35:15;6.00;99.90
1578;DHT22;57623;53.608;10.004;2023-11-19T02:37:43;6.00;99.90
1578;DHT22;57623;53.608;10.004;2023-11-19T02:40:11;6.00;99.90
1578;DHT22;57623;53.608;10.004;2023-11-19T02:42:40;6.00;99.90
1578;DHT22;57623;53.608;10.004;2023-11-19T02:45:10;6.00;99.90
1578;DHT22;57623;53.608;10.004;2023-11-19T02:47:41;6.00;99.90
1578;DHT22;57623;53.608;10.004;2023-11-19T02:50:10;6.00;99.90
1578;DHT22;57623;53.608;10.004;2023-11-19T02:52:41;6.00;99.90
1578;DHT22;57623;53.608;10.004;2023-11-19T02:55:10;6.00;99.90
1578;DHT22;57623;53.608;10.004;2023-11-19T02:57:39;6.00;99.90
1578;DHT22;57623;53.608;10.004;2023-11-19T03:00:14;6.10;99.90
1578;DHT22;57623;53.608;10.004;2023-11-19T03:02:43;6.10;99.90
1578;DHT22;57623;53.608;10.004;2023-11-19T03:05:13;6.10;99.90
1578;DHT22;57623;53.608;10.004;2023-11-19T03:07:42;6.10;99.90
1578;DHT22;57623;53.608;10.004;2023-11-19T03:10:13;6.10;99.90
1578;DHT22;57623;53.608;10.004;2023-11-19T03:12:42;6.10;99.90
1578;DHT22;57623;53.608;10.004;2023-11-19T03:15:10;6.10;99.90
1578;DHT22;57623;53.608;10.004;2023-11-19T03:17:41;6.10;99.90
1578;DHT22;57623;53.608;10.004;2023-11-19T03:20:11;6.20;99.90
1578;DHT22;57623;53.608;10.004;2023-11-19T03:22:42;6.20;99.90
1578;DHT22;57623;53.608;10.004;2023-11-19T03:25:11;6.20;99.90
1578;DHT22;57623;53.608;10.004;2023-11-19T03:27:39;6.30;99.90
1578;DHT22;57623;53.608;10.004;2023-11-19T03:30:09;6.30;99.90
1578;DHT22;57623;53.608;10.004;2023-11-19T03:32:39;6.30;99.90
1578;DHT22;57623;53.608;10.004;2023-11-19T03:35:07;6.30;99.90
1578;DHT22;57623;53.608;10.004;2023-11-19T03:37:36;6.40;99.90
1578;DHT22;57623;53.608;10.004;2023-11-19T03:40:05;6.40;99.90
1578;DHT22;57623;53.608;10.004;2023-11-19T03:42:33;6.40;99.90
1578;DHT22;57623;53.608;10.004;2023-11-19T03:45:01;6.40;99.90
1578;DHT22;57623;53.608;10.004;2023-11-19T03:47:30;6.40;99.90
1578;DHT22;57623;53.608;10.004;2023-11-19T03:50:00;6.40;99.90
1578;DHT22;57623;53.608;10.004;2023-11-19T03:52:28;6.40;99.90
1578;DHT22;57623;53.608;10.004;2023-11-19T03:54:56;6.50;99.90
1578;DHT22;57623;53.608;10.004;2023-11-19T03:57:24;6.50;99.90
1578;DHT22;57623;53.608;10.004;2023-11-19T03:59:52;6.50;99.90
1578;DHT22;57623;53.608;10.004;2023-11-19T04:02:22;6.50;99.90
1578;DHT22;57623;53.608;10.004;2023-11-19T04:04:50;6.50;99.90
1578;DHT22;57623;53.608;10.004;2023-11-19T04:07:19;6.50;99.90
1578;DHT22;57623;53.608;10.004;2023-11-19T04:09:48;6.50;99.90
1578;DHT22;57623;53.608;10.004;2023-11-19T04:12:16;6.60;99.90
1578;DHT22;57623;53.608;10.004;2023-11-19T04:14:44;6.60;99.90
1578;DHT22;57623;53.608;10.004;2023-11-19T04:17:12;6.60;99.90
1578;DHT22;57623;53.608;10.004;2023-11-19T04:19:40;6.60;99.90
1578;DHT22;57623;53.608;10.004;2023-11-19T04:22:08;6.60;99.90
1578;DHT22;57623;53.608;10.004;2023-11-19T04:24:37;6.60;99.90
1578;DHT22;57623;53.608;10.004;2023-11-19T04:27:07;6.60;99.90
1578;DHT22;57623;53.608;10.004;2023-11-19T04:29:35;6.60;99.90
1578;DHT22;57623;53.608;10.004;2023-11-19T04:32:03;6.60;99.90
1578;DHT22;57623;53.608;10.004;2023-11-19T04:34:32;6.60;99.90
1578;DHT22;57623;53.608;10.004;2023-11-19T04:37:00;6.70;99.90
1578;DHT22;57623;53.608;10.004;2023-11-19T04:39:32;6.70;99.90
1578;DHT22;57623;53.608;10.004;2023-11-19T04:42:02;6.70;99.90
1578;DHT22;57623;53.608;10.004;2023-11-19T04:44:31;6.70;99.90
1578;DHT22;57623;53.608;10.004;2023-11-19T04:46:59;6.70;99.90
1578;DHT22;57623;53.608;10.004;2023-11-19T04:49:27;6.70;99.90
1578;DHT22;57623;53.608;10.004;2023-11-19T04:51:57;6.70;99.90
1578;DHT22;57623;53.608;10.004;2023-11-19T04:54:25;6.70;99.90
1578;DHT22;57623;53.608;10.004;2023-11-19T04:56:53;6.70;99.90
1578;DHT22;57623;53.608;10.004;2023-11-19T04:59:23;6.70;99.90
1578;DHT22;57623;53.608;10.004;2023-11-19T05:01:51;6.70;99.90
1578;DHT22;57623;53.608;10.004;2023-11-19T05:04:20;6.80;99.90
1578;DHT22;57623;53.608;10.004;2023-11-19T05:06:48;6.80;99.90
1578;DHT22;57623;53.608;10.004;2023-11-19T05:09:16;6.90;99.90
1578;DHT22;57623;53.608;10.004;2023-11-19T05:11:44;6.90;99.90
1578;DHT22;57623;53.608;10.004;2023-11-19T05:14:15;6.90;99.90
1578;DHT22;57623;53.608;10.004;2023-11-19T05:16:46;6.90;99.90
1578;DHT22;57623;53.608;10.004;2023-11-19T05:19:14;7.00;99.90
1578;DHT22;57623;53.608;10.004;2023-11-19T05:21:43;7.00;99.90
1578;DHT22;57623;53.608;10.004;2023-11-19T05:24:11;7.00;99.90
1578;DHT22;57623;53.608;10.004;2023-11-19T05:26:39;7.10;99.90
1578;DHT22;57623;53.608;10.004;2023-11-19T05:29:07;7.10;99.90
1578;DHT22;57623;53.608;10.004;2023-11-19T05:31:35;7.10;99.90
1578;DHT22;57623;53.608;10.004;2023-11-19T05:34:06;7.20;99.90
1578;DHT22;57623;53.608;10.004;2023-11-19T05:36:35;7.20;99.90
1578;DHT22;57623;53.608;10.004;2023-11-19T05:39:03;7.30;99.90
1578;DHT22;57623;53.608;10.004;2023-11-19T05:41:31;7.40;99.90
1578;DHT22;57623;53.608;10.004;2023-11-19T05:43:59;7.40;99.90
1578;DHT22;57623;53.608;10.004;2023-11-19T05:46:28;7.40;99.90
1578;DHT22;57623;53.608;10.004;2023-11-19T05:48:56;7.50;99.90
1578;DHT22;57623;53.608;10.004;2023-11-19T05:51:26;7.50;99.90
1578;DHT22;57623;53.608;10.004;2023-11-19T05:53:54;7.60;99.90
1578;DHT22;57623;53.608;10.004;2023-11-19T05:56:22;7.70;99.90
1578;DHT22;57623;53.608;10.004;2023-11-19T05:58:51;7.70;99.90
1578;DHT22;57623;53.608;10.004;2023-11-19T06:01:19;7.80;99.90
1578;DHT22;57623;53.608;10.004;2023-11-19T06:03:47;7.90;99.90
1578;DHT22;57623;53.608;10.004;2023-11-19T06:06:17;7.90;99.90
1578;DHT22;57623;53.608;10.004;2023-11-19T06:08:46;8.00;99.90
1578;DHT22;57623;53.608;10.004;2023-11-19T06:11:14;8.00;99.90
1578;DHT22;57623;53.608;10.004;2023-11-19T06:13:45;8.10;99.90
1578;DHT22;57623;53.608;10.004;2023-11-19T06:16:13;8.20;99.90
1578;DHT22;57623;53.608;10.004;2023-11-19T06:18:42;8.30;99.90
1578;DHT22;57623;53.608;10.004;2023-11-19T06:21:11;8.30;99.90
1578;DHT22;57623;53.608;10.004;2023-11-19T06:23:38;8.40;99.90
1578;DHT22;57623;53.608;10.004;2023-11-19T06:26:08;8.40;99.90
1578;DHT22;57623;53.608;10.004;2023-11-19T06:28:36;8.50;99.90
1578;DHT22;57623;53.608;10.004;2023-11-19T06:31:04;8.70;99.90
1578;DHT22;57623;53.608;10.004;2023-11-19T06:33:32;8.80;99.90
1578;DHT22;57623;53.608;10.004;2023-11-19T06:36:01;8.80;99.90
1578;DHT22;57623;53.608;10.004;2023-11-19T06:38:28;8.90;99.90
1578;DHT22;57623;53.608;10.004;2023-11-19T06:40:56;8.90;99.90
1578;DHT22;57623;53.608;10.004;2023-11-19T06:43:26;9.00;99.90
1578;DHT22;57623;53.608;10.004;2023-11-19T06:46:14;9.20;99.90
1578;DHT22;57623;53.608;10.004;2023-11-19T06:48:43;9.30;99.90
1578;DHT22;57623;53.608;10.004;2023-11-19T06:51:11;9.30;99.90
1578;DHT22;57623;53.608;10.004;2023-11-19T06:53:39;9.40;99.90
1578;DHT22;57623;53.608;10.004;2023-11-19T06:56:18;9.40;99.90
1578;DHT22;57623;53.608;10.004;2023-11-19T06:58:47;9.50;99.90
1578;DHT22;57623;53.608;10.004;2023-11-19T07:01:15;9.50;99.90
1578;DHT22;57623;53.608;10.004;2023-11-19T07:03:45;9.50;99.90
1578;DHT22;57623;53.608;10.004;2023-11-19T07:06:14;9.60;99.90
1578;DHT22;57623;53.608;10.004;2023-11-19T07:08:42;9.70;99.90
1578;DHT22;57623;53.608;10.004;2023-11-19T07:11:11;9.80;99.90
1578;DHT22;57623;53.608;10.004;2023-11-19T07:13:40;9.80;99.90
1578;DHT22;57623;53.608;10.004;2023-11-19T07:16:10;9.90;99.90
1578;DHT22;57623;53.608;10.004;2023-11-19T07:18:38;9.90;99.90
1578;DHT22;57623;53.608;10.004;2023-11-19T07:21:06;10.00;99.90
1578;DHT22;57623;53.608;10.004;2023-11-19T07:23:37;10.10;99.90
1578;DHT22;57623;53.608;10.004;2023-11-19T07:26:06;10.10;99.90
1578;DHT22;57623;53.608;10.004;2023-11-19T07:28:36;10.20;99.90
1578;DHT22;57623;53.608;10.004;2023-11-19T07:31:04;10.20;99.90
1578;DHT22;57623;53.608;10.004;2023-11-19T07:33:36;10.30;99.90
1578;DHT22;57623;53.608;10.004;2023-11-19T07:36:04;10.30;99.90
1578;DHT22;57623;53.608;10.004;2023-11-19T07:38:32;10.30;99.90
1578;DHT22;57623;53.608;10.004;2023-11-19T07:41:01;10.40;99.90
1578;DHT22;57623;53.608;10.004;2023-11-19T07:43:29;10.40;99.90
1578;DHT22;57623;53.608;10.004;2023-11-19T07:45:57;10.50;99.90
1578;DHT22;57623;53.608;10.004;2023-11-19T07:48:26;10.50;99.90
1578;DHT22;57623;53.608;10.004;2023-11-19T07:50:55;10.50;99.90
1578;DHT22;57623;53.608;10.004;2023-11-19T07:53:23;10.50;99.90
1578;DHT22;57623;53.608;10.004;2023-11-19T07:55:51;10.50;99.90
1578;DHT22;57623;53.608;10.004;2023-11-19T07:58:19;10.60;99.90
1578;DHT22;57623;53.608;10.004;2023-11-19T08:00:47;10.60;99.90
1578;DHT22;57623;53.608;10.004;2023-11-19T08:03:15;10.60;99.90
1578;DHT22;57623;53.608;10.004;2023-11-19T08:05:44;10.60;99.90
1578;DHT22;57623;53.608;10.004;2023-11-19T08:08:14;10.60;99.90
1578;DHT22;57623;53.608;10.004;2023-11-19T08:10:42;10.60;99.90
1578;DHT22;57623;53.608;10.004;2023-11-19T08:13:11;10.70;99.90
1578;DHT22;57623;53.608;10.004;2023-11-19T08:15:39;10.70;99.90
1578;DHT22;57623;53.608;10.004;2023-11-19T08:18:07;10.70;99.90
1578;DHT22;57623;53.608;10.004;2023-11-19T08:20:36;10.70;99.90
1578;DHT22;57623;53.608;10.004;2023-11-19T08:23:04;10.80;99.90
1578;DHT22;57623;53.608;10.004;2023-11-19T08:25:33;10.80;99.90
1578;DHT22;57623;53.608;10.004;2023-11-19T08:28:01;10.80;99.90
1578;DHT22;57623;53.608;10.004;2023-11-19T08:30:30;10.90;99.90
1578;DHT22;57623;53.608;10.004;2023-11-19T08:32:58;10.90;99.90
1578;DHT22;57623;53.608;10.004;2023-11-19T08:35:29;10.90;99.90
1578;DHT22;57623;53.608;10.004;2023-11-19T08:37:58;11.00;99.90
1578;DHT22;57623;53.608;10.004;2023-11-19T08:40:27;11.00;99.90
1578;DHT22;57623;53.608;10.004;2023-11-19T08:42:56;11.00;99.90
1578;DHT22;57623;53.608;10.004;2023-11-19T08:45:24;11.00;99.90
1578;DHT22;57623;53.608;10.004;2023-11-19T08:47:52;11.10;99.90
1578;DHT22;57623;53.608;10.004;2023-11-19T08:50:20;11.10;99.90
1578;DHT22;57623;53.608;10.004;2023-11-19T08:52:48;11.10;99.90
1578;DHT22;57623;53.608;10.004;2023-11-19T08:55:16;11.10;99.90
1578;DHT22;57623;53.608;10.004;2023-11-19T08:57:44;11.10;99.90
1578;DHT22;57623;53.608;10.004;2023-11-19T09:00:14;11.10;99.90
1578;DHT22;57623;53.608;10.004;2023-11-19T09:02:42;11.10;99.90
1578;DHT22;57623;53.608;10.004;2023-11-19T09:05:11;11.20;99.90
1578;DHT22;57623;53.608;10.004;2023-11-19T09:07:39;11.20;99.90
1578;DHT22;57623;53.608;10.004;2023-11-19T09:10:08;11.20;99.90
1578;DHT22;57623;53.608;10.004;2023-11-19T09:12:38;11.20;99.90
1578;DHT22;57623;53.608;10.004;2023-11-19T09:15:06;11.20;99.90
1578;DHT22;57623;53.608;10.004;2023-11-19T09:17:38;11.20;99.90
1578;DHT22;57623;53.608;10.004;2023-11-19T09:20:08;11.20;99.90
1578;DHT22;57623;53.608;10.004;2023-11-19T09:22:39;11.20;99.90
1578;DHT22;57623;53.608;10.004;2023-11-19T09:25:07;11.30;99.90
1578;DHT22;57623;53.608;10.004;2023-11-19T09:27:35;11.40;99.90
1578;DHT22;57623;53.608;10.004;2023-11-19T09:30:04;11.40;99.90
1578;DHT22;57623;53.608;10.004;2023-11-19T09:32:34;11.40;99.90
1578;DHT22;57623;53.608;10.004;2023-11-19T09:35:04;11.40;99.90
1578;DHT22;57623;53.608;10.004;2023-11-19T09:37:33;11.50;99.90
1578;DHT22;57623;53.608;10.004;2023-11-19T09:40:01;11.50;99.90
1578;DHT22;57623;53.608;10.004;2023-11-19T09:42:31;11.60;99.90
1578;DHT22;57623;53.608;10.004;2023-11-19T09:45:12;11.60;99.90
1578;DHT22;57623;53.608;10.004;2023-11-19T09:47:42;11.70;99.90
1578;DHT22;57623;53.608;10.004;2023-11-19T09:50:15;11.70;99.90
1578;DHT22;57623;53.608;10.004;2023-11-19T09:52:44;11.80;99.90
1578;DHT22;57623;53.608;10.004;2023-11-19T09:55:12;11.80;99.90
1578;DHT22;57623;53.608;10.004;2023-11-19T09:57:40;11.90;99.90
1578;DHT22;57623;53.608;10.004;2023-11-19T10:00:09;11.90;99.90
1578;DHT22;57623;53.608;10.004;2023-11-19T10:02:39;12.00;99.90
1578;DHT22;57623;53.608;10.004;2023-11-19T10:05:07;12.00;99.90
1578;DHT22;57623;53.608;10.004;2023-11-19T10:07:38;12.10;99.90
1578;DHT22;57623;53.608;10.004;2023-11-19T10:10:07;12.10;99.90
1578;DHT22;57623;53.608;10.004;2023-11-19T10:12:37;12.10;99.90
1578;DHT22;57623;53.608;10.004;2023-11-19T10:15:06;12.10;99.90
1578;DHT22;57623;53.608;10.004;2023-11-19T10:17:36;12.00;99.90
1578;DHT22;57623;53.608;10.004;2023-11-19T10:20:06;12.00;99.90
1578;DHT22;57623;53.608;10.004;2023-11-19T10:22:38;11.90;99.90
1578;DHT22;57623;53.608;10.004;2023-11-19T10:25:21;11.90;99.90
1578;DHT22;57623;53.608;10.004;2023-11-19T10:27:50;11.90;99.90
1578;DHT22;57623;53.608;10.004;2023-11-19T10:30:20;11.80;99.90
1578;DHT22;57623;53.608;10.004;2023-11-19T10:33:03;11.80;99.90
1578;DHT22;57623;53.608;10.004;2023-11-19T10:35:32;11.70;99.90
1578;DHT22;57623;53.608;10.004;2023-11-19T10:38:13;11.60;99.90
1578;DHT22;57623;53.608;10.004;2023-11-19T10:40:42;11.60;99.90
1578;DHT22;57623;53.608;10.004;2023-11-19T10:43:11;11.60;99.90
1578;DHT22;57623;53.608;10.004;2023-11-19T10:45:40;11.60;99.90
1578;DHT22;57623;53.608;10.004;2023-11-19T10:48:08;11.60;99.90
1578;DHT22;57623;53.608;10.004;2023-11-19T10:50:38;11.60;99.90
1578;DHT22;57623;53.608;10.004;2023-11-19T10:53:09;11.60;99.90
1578;DHT22;57623;53.608;10.004;2023-11-19T10:55:37;11.60;99.90
1578;DHT22;57623;53.608;10.004;2023-11-19T10:58:07;11.60;99.90
1578;DHT22;57623;53.608;10.004;2023-11-19T11:00:38;11.60;99.90
1578;DHT22;57623;53.608;10.004;2023-11-19T11:03:11;11.70;99.90
1578;DHT22;57623;53.608;10.004;2023-11-19T11:05:43;11.80;99.90
1578;DHT22;57623;53.608;10.004;2023-11-19T11:08:16;11.80;99.90
1578;DHT22;57623;53.608;10.004;2023-11-19T11:10:45;11.80;99.90
1578;DHT22;57623;53.608;10.004;2023-11-19T11:13:18;11.80;99.90
1578;DHT22;57623;53.608;10.004;2023-11-19T11:15:47;11.70;99.90
1578;DHT22;57623;53.608;10.004;2023-11-19T11:18:16;11.80;99.90
1578;DHT22;57623;53.608;10.004;2023-11-19T11:20:45;11.70;99.90
1578;DHT22;57623;53.608;10.004;2023-11-19T11:24:00;11.80;99.90
1578;DHT22;57623;53.608;10.004;2023-11-19T11:26:48;11.80;99.90
1578;DHT22;57623;53.608;10.004;2023-11-19T11:29:26;11.90;99.90
1578;DHT22;57623;53.608;10.004;2023-11-19T11:32:06;12.00;99.90
1578;DHT22;57623;53.608;10.004;2023-11-19T11:34:57;12.00;99.90
1578;DHT22;57623;53.608;10.004;2023-11-19T11:37:32;12.10;99.90
1578;DHT22;57623;53.608;10.004;2023-11-19T11:40:03;12.10;99.90
1578;DHT22;57623;53.608;10.004;2023-11-19T11:42:37;12.10;99.90
1578;DHT22;57623;53.608;10.004;2023-11-19T11:45:06;12.10;99.90
1578;DHT22;57623;53.608;10.004;2023-11-19T11:48:06;12.10;99.90
1578;DHT22;57623;53.608;10.004;2023-11-19T11:50:37;12.10;99.90
1578;DHT22;57623;53.608;10.004;2023-11-19T11:53:16;12.00;99.90
1578;DHT22;57623;53.608;10.004;2023-11-19T11:55:58;12.00;99.90
1578;DHT22;57623;53.608;10.004;2023-11-19T11:58:34;11.90;99.90
1578;DHT22;57623;53.608;10.004;2023-11-19T12:01:04;11.90;99.90
1578;DHT22;57623;53.608;10.004;2023-11-19T12:03:33;11.80;99.90
1578;DHT22;57623;53.608;10.004;2023-11-19T12:06:02;11.80;99.90
1578;DHT22;57623;53.608;10.004;2023-11-19T12:08:30;11.80;99.90
1578;DHT22;57623;53.608;10.004;2023-11-19T12:11:01;11.80;99.90
1578;DHT22;57623;53.608;10.004;2023-11-19T12:13:54;11.90;99.90
1578;DHT22;57623;53.608;10.004;2023-11-19T12:16:29;11.90;99.90
1578;DHT22;57623;53.608;10.004;2023-11-19T12:19:03;12.00;99.90
1578;DHT22;57623;53.608;10.004;2023-11-19T12:21:32;12.00;99.90
1578;DHT22;57623;53.608;10.004;2023-11-19T12:24:04;12.00;99.90
1578;DHT22;57623;53.608;10.004;2023-11-19T12:26:37;12.00;99.90
1578;DHT22;57623;53.608;10.004;2023-11-19T12:29:06;12.00;99.90
1578;DHT22;57623;53.608;10.004;2023-11-19T12:31:36;12.00;99.90
1578;DHT22;57623;53.608;10.004;2023-11-19T12:34:08;12.10;99.90
1578;DHT22;57623;53.608;10.004;2023-11-19T12:36:40;12.30;99.90
1578;DHT22;57623;53.608;10.004;2023-11-19T12:39:09;12.40;99.90
1578;DHT22;57623;53.608;10.004;2023-11-19T12:41:51;12.40;99.90
1578;DHT22;57623;53.608;10.004;2023-11-19T12:44:20;12.40;99.90
1578;DHT22;57623;53.608;10.004;2023-11-19T12:47:02;12.30;99.90
1578;DHT22;57623;53.608;10.004;2023-11-19T12:49:31;12.30;99.90
1578;DHT22;57623;53.608;10.004;2023-11-19T12:51:59;12.20;99.90
1578;DHT22;57623;53.608;10.004;2023-11-19T12:54:34;12.20;99.90
1578;DHT22;57623;53.608;10.004;2023-11-19T12:57:05;12.20;99.90
1578;DHT22;57623;53.608;10.004;2023-11-19T12:59:33;12.20;99.90
1578;DHT22;57623;53.608;10.004;2023-11-19T13:02:01;12.20;99.90
1578;DHT22;57623;53.608;10.004;2023-11-19T13:04:32;12.20;99.90
1578;DHT22;57623;53.608;10.004;2023-11-19T13:07:01;12.20;99.90
1578;DHT22;57623;53.608;10.004;2023-11-19T13:09:32;12.30;99.90
1578;DHT22;57623;53.608;10.004;2023-11-19T13:12:14;12.40;99.90
1578;DHT22;57623;53.608;10.004;2023-11-19T13:14:43;12.40;99.90
1578;DHT22;57623;53.608;10.004;2023-11-19T13:17:14;12.40;99.90
1578;DHT22;57623;53.608;10.004;2023-11-19T13:19:42;12.40;99.90
1578;DHT22;57623;53.608;10.004;2023-11-19T13:22:10;12.30;99.90
1578;DHT22;57623;53.608;10.004;2023-11-19T13:24:38;12.30;99.90
1578;DHT22;57623;53.608;10.004;2023-11-19T13:27:07;12.20;99.90
1578;DHT22;57623;53.608;10.004;2023-11-19T13:29:36;12.20;99.90
1578;DHT22;57623;53.608;10.004;2023-11-19T13:32:04;12.20;99.90
1578;DHT22;57623;53.608;10.004;2023-11-19T13:34:32;12.30;99.90
1578;DHT22;57623;53.608;10.004;2023-11-19T13:37:01;12.30;99.90
1578;DHT22;57623;53.608;10.004;2023-11-19T13:39:29;12.30;99.90
1578;DHT22;57623;53.608;10.004;2023-11-19T13:41:57;12.30;99.90
1578;DHT22;57623;53.608;10.004;2023-11-19T13:44:29;12.30;99.90
1578;DHT22;57623;53.608;10.004;2023-11-19T13:46:58;12.40;99.90
1578;DHT22;57623;53.608;10.004;2023-11-19T13:49:26;12.50;99.90
1578;DHT22;57623;53.608;10.004;2023-11-19T13:51:55;12.60;99.90
1578;DHT22;57623;53.608;10.004;2023-11-19T13:54:23;12.70;99.90
1578;DHT22;57623;53.608;10.004;2023-11-19T13:56:54;12.80;99.90
1578;DHT22;57623;53.608;10.004;2023-11-19T13:59:24;12.90;99.90
1578;DHT22;57623;53.608;10.004;2023-11-19T14:01:52;13.00;99.90
1578;DHT22;57623;53.608;10.004;2023-11-19T14:04:21;13.10;99.90
1578;DHT22;57623;53.608;10.004;2023-11-19T14:06:50;13.30;99.90
1578;DHT22;57623;53.608;10.004;2023-11-19T14:09:18;13.40;99.90
1578;DHT22;57623;53.608;10.004;2023-11-19T14:11:46;13.40;99.90
1578;DHT22;57623;53.608;10.004;2023-11-19T14:14:15;13.30;99.90
1578;DHT22;57623;53.608;10.004;2023-11-19T14:16:43;13.30;99.90
1578;DHT22;57623;53.608;10.004;2023-11-19T14:19:11;13.30;99.90
1578;DHT22;57623;53.608;10.004;2023-11-19T14:21:42;13.20;99.90
1578;DHT22;57623;53.608;10.004;2023-11-19T14:24:11;13.10;99.90
1578;DHT22;57623;53.608;10.004;2023-11-19T14:26:40;13.00;99.90
1578;DHT22;57623;53.608;10.004;2023-11-19T14:29:08;13.00;99.90
1578;DHT22;57623;53.608;10.004;2023-11-19T14:31:36;13.00;99.90
1578;DHT22;57623;53.608;10.004;2023-11-19T14:34:04;12.90;99.90
1578;DHT22;57623;53.608;10.004;2023-11-19T14:36:32;12.80;99.90
1578;DHT22;57623;53.608;10.004;2023-11-19T14:39:01;12.70;99.90
1578;DHT22;57623;53.608;10.004;2023-11-19T14:41:30;12.60;99.90
1578;DHT22;57623;53.608;10.004;2023-11-19T14:43:58;12.40;99.90
1578;DHT22;57623;53.608;10.004;2023-11-19T14:46:28;12.40;99.90
1578;DHT22;57623;53.608;10.004;2023-11-19T14:48:56;12.30;99.90
1578;DHT22;57623;53.608;10.004;2023-11-19T14:51:24;12.20;99.90
1578;DHT22;57623;53.608;10.004;2023-11-19T14:53:52;12.20;99.90
1578;DHT22;57623;53.608;10.004;2023-11-19T14:56:21;12.10;99.90
1578;DHT22;57623;53.608;10.004;2023-11-19T14:58:49;12.00;99.90
1578;DHT22;57623;53.608;10.004;2023-11-19T15:01:17;12.00;99.90
1578;DHT22;57623;53.608;10.004;2023-11-19T15:03:46;11.90;99.90
1578;DHT22;57623;53.608;10.004;2023-11-19T15:06:17;11.80;99.90
1578;DHT22;57623;53.608;10.004;2023-11-19T15:08:45;11.70;99.90
1578;DHT22;57623;53.608;10.004;2023-11-19T15:11:13;11.60;99.90
1578;DHT22;57623;53.608;10.004;2023-11-19T15:13:42;11.60;99.90
1578;DHT22;57623;53.608;10.004;2023-11-19T15:16:10;11.50;99.90
1578;DHT22;57623;53.608;10.004;2023-11-19T15:18:38;11.40;99.90
1578;DHT22;57623;53.608;10.004;2023-11-19T15:21:07;11.30;99.90
1578;DHT22;57623;53.608;10.004;2023-11-19T15:23:36;11.20;99.90
1578;DHT22;57623;53.608;10.004;2023-11-19T15:26:04;11.20;99.90
1578;DHT22;57623;53.608;10.004;2023-11-19T15:28:33;11.10;99.90
1578;DHT22;57623;53.608;10.004;2023-11-19T15:31:03;11.00;99.90
1578;DHT22;57623;53.608;10.004;2023-11-19T15:33:31;11.00;99.90
1578;DHT22;57623;53.608;10.004;2023-11-19T15:35:59;10.90;99.90
1578;DHT22;57623;53.608;10.004;2023-11-19T15:38:29;10.90;99.90
1578;DHT22;57623;53.608;10.004;2023-11-19T15:40:57;10.90;99.90
1578;DHT22;57623;53.608;10.004;2023-11-19T15:43:25;10.80;99.90
1578;DHT22;57623;53.608;10.004;2023-11-19T15:45:53;10.80;99.90
1578;DHT22;57623;53.608;10.004;2023-11-19T15:48:22;10.70;99.90
1578;DHT22;57623;53.608;10.004;2023-11-19T15:50:49;10.70;99.90
1578;DHT22;57623;53.608;10.004;2023-11-19T15:53:17;10.70;99.90